createdAt,value
2019-06-10T00:00:22.503Z,52.32
2019-06-10T00:01:22.775Z,52.42
2019-06-10T00:02:22.509Z,52.44
2019-06-10T00:03:22.501Z,52.55
2019-06-10T00:04:22.533Z,52.64
2019-06-10T00:05:22.456Z,52.74
2019-06-10T00:06:22.438Z,52.74
2019-06-10T00:07:22.427Z,52.84
2019-06-10T00:08:22.417Z,52.74
2019-06-10T00:09:22.406Z,52.74
2019-06-10T00:10:22.463Z,52.74
2019-06-10T00:11:22.386Z,52.64
2019-06-10T00:12:22.375Z,52.74
2019-06-10T00:13:22.365Z,52.84
2019-06-10T00:14:22.358Z,52.64
2019-06-10T00:15:22.354Z,52.44
2019-06-10T00:16:22.366Z,52.44
2019-06-10T00:17:22.326Z,52.24
2019-06-10T00:18:35.385Z,52.22
2019-06-10T00:19:23.299Z,52.32
2019-06-10T00:20:22.286Z,52.22
2019-06-10T00:21:22.284Z,52.22
2019-06-10T00:22:22.308Z,52.72
2019-06-10T00:23:22.266Z,52.32
2019-06-10T00:24:23.042Z,52.01
2019-06-10T00:25:22.528Z,52.01
2019-06-10T00:26:22.301Z,52.22
2019-06-10T00:27:22.294Z,52.22
2019-06-10T00:28:22.247Z,52.29
2019-06-10T00:29:22.501Z,51.99
2019-06-10T00:30:22.376Z,52.09
2019-06-10T00:31:22.179Z,52.51
2019-06-10T00:32:22.172Z,52.32
2019-06-10T00:33:23.042Z,52.62
2019-06-10T00:34:22.183Z,52.42
2019-06-10T00:35:22.136Z,52.22
2019-06-10T00:36:22.204Z,52.62
2019-06-10T00:37:22.396Z,52.32
2019-06-10T00:38:22.167Z,52.22
2019-06-10T00:39:22.960Z,52.72
2019-06-10T00:40:22.388Z,52.72
2019-06-10T00:41:22.132Z,52.72
2019-06-10T00:42:22.069Z,52.94
2019-06-10T00:43:22.070Z,52.72
2019-06-10T00:44:22.328Z,52.82
2019-06-10T00:45:22.036Z,52.72
2019-06-10T00:46:22.077Z,53.14
2019-06-10T00:47:22.147Z,53.05
2019-06-10T00:48:28.801Z,53.34
2019-06-10T00:49:22.996Z,53.55
2019-06-10T00:50:22.006Z,53.45
2019-06-10T00:51:22.264Z,53.65
2019-06-10T00:52:22.019Z,53.55
2019-06-10T00:53:23.418Z,53.65
2019-06-10T00:54:22.449Z,53.75
2019-06-10T00:55:21.954Z,53.85
2019-06-10T00:56:22.449Z,53.95
2019-06-10T00:57:22.449Z,53.75
2019-06-10T00:58:21.977Z,54.05
2019-06-10T00:59:22.261Z,54.05
2019-06-10T01:00:25.494Z,54.05
2019-06-10T01:01:22.102Z,54.25
2019-06-10T01:02:22.127Z,54.05
2019-06-10T01:03:21.857Z,54.35
2019-06-10T01:04:25.350Z,54.25
2019-06-10T01:05:21.979Z,54.08
2019-06-10T01:06:21.829Z,54.08
2019-06-10T01:07:21.983Z,53.97
2019-06-10T01:08:21.797Z,53.97
2019-06-10T01:09:22.023Z,54.17
2019-06-10T01:10:21.828Z,54.08
2019-06-10T01:11:26.954Z,54.28
2019-06-10T01:12:22.766Z,54.38
2019-06-10T01:13:21.747Z,54.38
2019-06-10T01:14:21.852Z,54.68
2019-06-10T01:15:21.878Z,54.88
2019-06-10T01:16:21.901Z,55.18
2019-06-10T01:17:21.706Z,55.18
2019-06-10T01:18:34.629Z,55.41
2019-06-10T01:19:22.717Z,55.38
2019-06-10T01:20:21.697Z,55.51
2019-06-10T01:21:21.964Z,55.71
2019-06-10T01:22:21.708Z,55.71
2019-06-10T01:23:21.972Z,55.71
2019-06-10T01:24:22.410Z,55.71
2019-06-10T01:25:21.909Z,55.81
2019-06-10T01:26:21.809Z,55.91
2019-06-10T01:27:21.601Z,55.91
2019-06-10T01:28:22.175Z,56.01
2019-06-10T01:29:21.589Z,56.41
2019-06-10T01:30:26.458Z,56.62
2019-06-10T01:31:24.415Z,56.92
2019-06-10T01:32:21.770Z,57.15
2019-06-10T01:33:21.539Z,57.45
2019-06-10T01:34:21.911Z,57.55
2019-06-10T01:35:21.530Z,57.85
2019-06-10T01:36:21.530Z,57.75
2019-06-10T01:37:22.020Z,57.85
2019-06-10T01:38:21.547Z,57.85
2019-06-10T01:39:22.627Z,57.75
2019-06-10T01:40:21.966Z,57.75
2019-06-10T01:41:21.613Z,58.05
2019-06-10T01:42:21.690Z,58.15
2019-06-10T01:43:21.731Z,58.15
2019-06-10T01:44:22.155Z,58.28
2019-06-10T01:45:21.458Z,58.48
2019-06-10T01:46:21.448Z,58.58
2019-06-10T01:47:21.703Z,58.68
2019-06-10T01:48:21.469Z,58.68
2019-06-10T01:49:21.550Z,58.88
2019-06-10T01:50:21.921Z,58.48
2019-06-10T01:51:21.657Z,58.48
2019-06-10T01:52:21.410Z,58.58
2019-06-10T01:53:22.091Z,58.68
2019-06-10T01:54:21.540Z,58.78
2019-06-10T01:55:21.977Z,58.88
2019-06-10T01:56:21.638Z,58.88
2019-06-10T01:57:21.997Z,58.98
2019-06-10T01:58:23.643Z,58.88
2019-06-10T01:59:22.141Z,58.98
2019-06-10T02:01:43.953Z,59.06
2019-06-10T02:02:44.940Z,58.86
2019-06-10T02:03:43.348Z,58.45
2019-06-10T02:04:43.329Z,58.45
2019-06-10T02:05:43.380Z,58.55
2019-06-10T02:06:43.310Z,58.65
2019-06-10T02:07:43.620Z,58.95
2019-06-10T02:08:43.300Z,59.06
2019-06-10T02:09:43.287Z,58.86
2019-06-10T02:10:43.270Z,59.36
2019-06-10T02:11:43.258Z,58.78
2019-06-10T02:12:43.248Z,58.78
2019-06-10T02:13:43.269Z,58.98
2019-06-10T02:14:43.516Z,58.78
2019-06-10T02:15:43.230Z,58.98
2019-06-10T02:16:43.206Z,58.98
2019-06-10T02:17:43.205Z,59.08
2019-06-10T02:18:56.795Z,59.08
2019-06-10T02:19:44.249Z,58.98
2019-06-10T02:20:43.678Z,58.98
2019-06-10T02:21:43.439Z,58.98
2019-06-10T02:22:43.148Z,58.98
2019-06-10T02:23:43.128Z,59.19
2019-06-10T02:24:43.127Z,59.16
2019-06-10T02:25:43.188Z,58.86
2019-06-10T02:26:43.107Z,58.55
2019-06-10T02:27:43.098Z,58.55
2019-06-10T02:28:44.308Z,58.35
2019-06-10T02:29:43.077Z,58.22
2019-06-10T02:30:50.809Z,58.22
2019-06-10T02:31:44.162Z,58.12
2019-06-10T02:32:43.109Z,58.35
2019-06-10T02:33:43.649Z,58.35
2019-06-10T02:35:01.250Z,58.25
2019-06-10T02:35:48.836Z,58.75
2019-06-10T02:36:44.767Z,58.88
2019-06-10T02:37:44.692Z,59.08
2019-06-10T02:38:44.391Z,59.39
2019-06-10T02:39:43.962Z,59.48
2019-06-10T02:40:43.375Z,59.62
2019-06-10T02:41:44.608Z,59.62
2019-06-10T02:42:43.761Z,59.72
2019-06-10T02:43:44.006Z,59.82
2019-06-10T02:44:44.517Z,60.02
2019-06-10T02:45:44.567Z,60.02
2019-06-10T02:46:43.846Z,60.32
2019-06-10T02:47:44.265Z,60.32
2019-06-10T02:48:43.739Z,60.32
2019-06-10T02:49:57.169Z,60.32
2019-06-10T02:50:44.266Z,60.22
2019-06-10T02:51:43.975Z,60.32
2019-06-10T02:52:44.491Z,60.32
2019-06-10T02:53:43.658Z,60.12
2019-06-10T02:54:43.872Z,60.22
2019-06-10T02:55:43.505Z,60.02
2019-06-10T02:56:44.201Z,59.72
2019-06-10T02:57:44.937Z,59.72
2019-06-10T02:58:44.899Z,59.92
2019-06-10T02:59:43.560Z,60.02
2019-06-10T03:00:48.009Z,59.89
2019-06-10T03:01:44.569Z,59.79
2019-06-10T03:02:44.987Z,59.89
2019-06-10T03:03:45.956Z,59.69
2019-06-10T03:04:43.699Z,59.39
2019-06-10T03:05:46.501Z,59.39
2019-06-10T03:06:44.882Z,59.19
2019-06-10T03:07:44.812Z,59.28
2019-06-10T03:08:43.716Z,59.19
2019-06-10T03:09:42.914Z,59.39
2019-06-10T03:10:44.392Z,59.48
2019-06-10T03:11:44.802Z,59.59
2019-06-10T03:12:42.617Z,59.56
2019-06-10T03:13:42.722Z,59.36
2019-06-10T03:14:42.597Z,59.08
2019-06-10T03:15:42.729Z,59.39
2019-06-10T03:16:42.568Z,59.69
2019-06-10T03:17:43.023Z,59.82
2019-06-10T03:18:43.407Z,59.92
2019-06-10T03:19:50.204Z,60.12
2019-06-10T03:20:43.535Z,60.22
2019-06-10T03:21:42.981Z,60.09
2019-06-10T03:22:42.528Z,60.19
2019-06-10T03:23:42.818Z,59.99
2019-06-10T03:24:42.485Z,59.99
2019-06-10T03:25:42.508Z,60.09
2019-06-10T03:26:42.950Z,60.19
2019-06-10T03:27:42.610Z,60.39
2019-06-10T03:28:42.846Z,60.49
2019-06-10T03:29:42.430Z,60.80
2019-06-10T03:30:53.517Z,60.69
2019-06-10T03:31:47.966Z,60.49
2019-06-10T03:32:46.838Z,60.49
2019-06-10T03:33:47.346Z,60.69
2019-06-10T03:34:47.247Z,60.49
2019-06-10T03:35:42.445Z,60.39
2019-06-10T03:36:42.914Z,60.39
2019-06-10T03:37:42.678Z,60.39
2019-06-10T03:38:43.222Z,60.29
2019-06-10T03:39:42.763Z,59.99
2019-06-10T03:40:43.386Z,60.29
2019-06-10T03:41:42.525Z,60.60
2019-06-10T03:42:42.778Z,60.60
2019-06-10T03:43:42.942Z,60.49
2019-06-10T03:44:43.087Z,60.29
2019-06-10T03:45:42.620Z,60.29
2019-06-10T03:46:43.102Z,60.49
2019-06-10T03:47:42.674Z,60.49
2019-06-10T03:48:43.366Z,60.29
2019-06-10T03:49:51.909Z,60.29
2019-06-10T03:50:43.247Z,60.29
2019-06-10T03:51:43.498Z,60.39
2019-06-10T03:52:43.139Z,59.79
2019-06-10T03:53:42.764Z,59.89
2019-06-10T03:54:43.303Z,60.12
2019-06-10T03:55:42.443Z,60.55
2019-06-10T03:56:42.989Z,60.96
2019-06-10T03:57:42.443Z,61.16
2019-06-10T03:58:43.236Z,61.16
2019-06-10T03:59:42.288Z,61.25
2019-06-10T04:00:43.012Z,61.25
2019-06-10T04:01:42.725Z,61.25
2019-06-10T04:02:42.974Z,61.25
2019-06-10T04:03:42.731Z,61.25
2019-06-10T04:04:42.954Z,61.16
2019-06-10T04:05:42.478Z,61.13
2019-06-10T04:06:44.248Z,61.03
2019-06-10T04:07:42.721Z,60.93
2019-06-10T04:08:43.307Z,60.83
2019-06-10T04:09:42.493Z,61.13
2019-06-10T04:10:42.975Z,61.33
2019-06-10T04:11:43.053Z,61.66
2019-06-10T04:12:43.496Z,61.86
2019-06-10T04:13:43.064Z,61.96
2019-06-10T04:14:42.064Z,61.96
2019-06-10T04:15:43.143Z,61.96
2019-06-10T04:16:43.267Z,61.96
2019-06-10T04:17:42.752Z,62.16
2019-06-10T04:18:43.074Z,62.37
2019-06-10T04:19:42.222Z,62.37
2019-06-10T04:20:42.832Z,61.36
2019-06-10T04:21:43.306Z,61.56
2019-06-10T04:22:44.332Z,61.66
2019-06-10T04:23:42.512Z,61.86
2019-06-10T04:24:43.148Z,62.26
2019-06-10T04:25:42.749Z,62.13
2019-06-10T04:26:43.506Z,62.04
2019-06-10T04:27:42.498Z,61.73
2019-06-10T04:28:43.047Z,61.63
2019-06-10T04:29:42.192Z,61.60
2019-06-10T04:30:43.262Z,61.50
2019-06-10T04:31:42.492Z,61.70
2019-06-10T04:32:42.922Z,61.60
2019-06-10T04:33:42.209Z,61.50
2019-06-10T04:34:43.311Z,61.70
2019-06-10T04:35:42.757Z,61.70
2019-06-10T04:36:42.301Z,61.70
2019-06-10T04:37:42.882Z,61.60
2019-06-10T04:38:43.173Z,61.67
2019-06-10T04:39:42.725Z,61.77
2019-06-10T04:40:43.078Z,61.57
2019-06-10T04:41:42.625Z,61.60
2019-06-10T04:42:43.616Z,61.80
2019-06-10T04:43:43.194Z,61.90
2019-06-10T04:44:42.329Z,61.83
2019-06-10T04:45:42.981Z,62.04
2019-06-10T04:46:42.744Z,62.13
2019-06-10T04:47:43.173Z,62.44
2019-06-10T04:48:42.725Z,62.74
2019-06-10T04:49:42.823Z,62.77
2019-06-10T04:50:46.023Z,62.87
2019-06-10T04:51:43.564Z,62.94
2019-06-10T04:52:43.052Z,62.84
2019-06-10T04:53:43.579Z,62.94
2019-06-10T04:54:42.166Z,63.14
2019-06-10T04:55:43.065Z,63.24
2019-06-10T04:56:42.874Z,63.65
2019-06-10T04:57:43.043Z,63.45
2019-06-10T04:58:43.361Z,63.24
2019-06-10T04:59:42.833Z,63.34
2019-06-10T05:00:42.910Z,63.04
2019-06-10T05:01:42.606Z,62.74
2019-06-10T05:02:43.118Z,62.94
2019-06-10T05:03:43.434Z,63.04
2019-06-10T05:04:42.652Z,63.14
2019-06-10T05:05:43.067Z,63.04
2019-06-10T05:06:42.169Z,62.94
2019-06-10T05:07:42.832Z,62.54
2019-06-10T05:08:42.568Z,62.61
2019-06-10T05:09:42.348Z,62.51
2019-06-10T05:10:42.467Z,62.51
2019-06-10T05:11:43.048Z,62.30
2019-06-10T05:12:43.299Z,62.61
2019-06-10T05:13:42.892Z,62.71
2019-06-10T05:14:43.279Z,62.71
2019-06-10T05:15:43.370Z,62.61
2019-06-10T05:16:43.175Z,62.61
2019-06-10T05:17:43.635Z,62.51
2019-06-10T05:18:42.484Z,62.51
2019-06-10T05:19:42.929Z,62.21
2019-06-10T05:20:52.048Z,62.21
2019-06-10T05:21:42.569Z,62.61
2019-06-10T05:22:42.371Z,62.91
2019-06-10T05:23:43.030Z,63.11
2019-06-10T05:24:42.441Z,62.71
2019-06-10T05:25:42.790Z,62.91
2019-06-10T05:26:42.561Z,62.91
2019-06-10T05:27:42.968Z,63.11
2019-06-10T05:28:43.225Z,63.21
2019-06-10T05:29:42.231Z,63.21
2019-06-10T05:30:42.687Z,63.21
2019-06-10T05:31:43.490Z,62.81
2019-06-10T05:32:43.262Z,63.01
2019-06-10T05:33:42.667Z,62.91
2019-06-10T05:34:43.678Z,63.24
2019-06-10T05:35:42.717Z,63.45
2019-06-10T05:36:43.564Z,63.45
2019-06-10T05:37:42.317Z,63.54
2019-06-10T05:38:43.508Z,63.95
2019-06-10T05:39:42.414Z,63.95
2019-06-10T05:40:42.745Z,63.95
2019-06-10T05:41:43.252Z,64.15
2019-06-10T05:42:42.629Z,64.15
2019-06-10T05:43:43.022Z,64.15
2019-06-10T05:44:43.016Z,64.15
2019-06-10T05:45:42.466Z,63.85
2019-06-10T05:46:43.296Z,63.95
2019-06-10T05:47:42.761Z,63.95
2019-06-10T05:48:43.512Z,64.35
2019-06-10T05:49:43.064Z,64.15
2019-06-10T05:50:42.783Z,64.05
2019-06-10T05:51:42.388Z,64.02
2019-06-10T05:52:42.672Z,64.12
2019-06-10T05:53:42.663Z,63.71
2019-06-10T05:54:42.996Z,63.71
2019-06-10T05:55:42.764Z,64.02
2019-06-10T05:56:43.043Z,64.32
2019-06-10T05:57:42.851Z,64.22
2019-06-10T05:58:43.356Z,64.12
2019-06-10T05:59:43.151Z,63.92
2019-06-10T06:00:42.808Z,63.59
2019-06-10T06:01:43.171Z,63.68
2019-06-10T06:02:43.111Z,63.59
2019-06-10T06:03:43.639Z,63.39
2019-06-10T06:04:42.809Z,63.39
2019-06-10T06:05:43.227Z,63.25
2019-06-10T06:06:42.520Z,62.85
2019-06-10T06:07:42.297Z,62.75
2019-06-10T06:08:42.898Z,62.75
2019-06-10T06:09:42.716Z,62.35
2019-06-10T06:10:42.334Z,62.55
2019-06-10T06:11:42.837Z,62.45
2019-06-10T06:12:42.462Z,62.55
2019-06-10T06:13:43.209Z,62.65
2019-06-10T06:14:42.570Z,62.75
2019-06-10T06:15:42.400Z,63.15
2019-06-10T06:16:43.237Z,63.45
2019-06-10T06:17:42.968Z,63.35
2019-06-10T06:18:42.191Z,63.45
2019-06-10T06:19:43.180Z,63.32
2019-06-10T06:20:40.615Z,63.22
2019-06-10T06:21:46.599Z,63.32
2019-06-10T06:22:42.877Z,63.32
2019-06-10T06:23:40.589Z,63.22
2019-06-10T06:24:42.644Z,63.22
2019-06-10T06:25:44.320Z,63.22
2019-06-10T06:26:43.066Z,63.42
2019-06-10T06:27:42.065Z,63.22
2019-06-10T06:28:43.108Z,63.29
2019-06-10T06:29:42.971Z,63.02
2019-06-10T06:30:42.284Z,63.32
2019-06-10T06:31:42.730Z,63.32
2019-06-10T06:32:40.488Z,63.19
2019-06-10T06:33:42.974Z,63.12
2019-06-10T06:34:40.485Z,63.12
2019-06-10T06:35:43.671Z,62.62
2019-06-10T06:36:42.247Z,63.02
2019-06-10T06:37:42.848Z,62.99
2019-06-10T06:38:40.437Z,62.89
2019-06-10T06:39:42.757Z,62.69
2019-06-10T06:40:43.340Z,62.36
2019-06-10T06:41:42.753Z,61.96
2019-06-10T06:42:43.074Z,61.15
2019-06-10T06:43:44.829Z,60.52
2019-06-10T06:44:43.336Z,60.62
2019-06-10T06:45:42.626Z,60.39
2019-06-10T06:46:42.679Z,59.89
2019-06-10T06:47:40.351Z,60.10
2019-06-10T06:48:43.794Z,59.99
2019-06-10T06:49:42.493Z,59.86
2019-06-10T06:50:57.325Z,59.06
2019-06-10T06:51:51.839Z,59.16
2019-06-10T06:53:15.377Z,59.66
2019-06-10T06:53:48.392Z,59.46
2019-06-10T06:54:42.435Z,58.73
2019-06-10T06:55:40.256Z,58.86
2019-06-10T06:56:41.092Z,58.73
2019-06-10T06:57:40.219Z,58.83
2019-06-10T06:58:43.017Z,57.87
2019-06-10T06:59:40.867Z,56.48
2019-06-10T07:00:59.759Z,56.37
2019-06-10T07:01:44.096Z,57.17
2019-06-10T07:02:40.901Z,56.87
2019-06-10T07:03:44.612Z,56.27
2019-06-10T07:04:40.483Z,56.98
2019-06-10T07:05:42.750Z,57.07
2019-06-10T07:06:40.342Z,56.95
2019-06-10T07:07:42.859Z,56.45
2019-06-10T07:08:41.451Z,56.65
2019-06-10T07:09:42.793Z,56.95
2019-06-10T07:10:43.409Z,56.52
2019-06-10T07:11:44.369Z,56.32
2019-06-10T07:12:43.303Z,56.62
2019-06-10T07:13:43.405Z,56.65
2019-06-10T07:14:44.823Z,56.52
2019-06-10T07:15:42.165Z,56.12
2019-06-10T07:16:45.625Z,56.32
2019-06-10T07:17:45.140Z,56.42
2019-06-10T07:18:45.503Z,56.82
2019-06-10T07:19:43.726Z,56.92
2019-06-10T07:20:41.645Z,56.92
2019-06-10T07:22:03.785Z,57.12
2019-06-10T07:22:42.831Z,57.02
2019-06-10T07:23:44.538Z,57.32
2019-06-10T07:24:45.350Z,57.42
2019-06-10T07:25:46.557Z,57.42
2019-06-10T07:26:45.305Z,57.42
2019-06-10T07:27:45.116Z,57.52
2019-06-10T07:28:46.640Z,57.82
2019-06-10T07:29:45.372Z,58.02
2019-06-10T07:30:47.176Z,57.92
2019-06-10T07:31:43.496Z,57.92
2019-06-10T07:32:41.516Z,58.22
2019-06-10T07:33:44.750Z,58.12
2019-06-10T07:34:40.448Z,57.82
2019-06-10T07:35:40.917Z,57.69
2019-06-10T07:36:40.880Z,57.26
2019-06-10T07:37:41.077Z,57.07
2019-06-10T07:38:42.397Z,56.77
2019-06-10T07:39:41.742Z,57.19
2019-06-10T07:40:42.621Z,57.29
2019-06-10T07:41:42.034Z,57.29
2019-06-10T07:42:41.620Z,57.50
2019-06-10T07:43:44.249Z,57.69
2019-06-10T07:44:43.164Z,57.39
2019-06-10T07:45:41.871Z,57.17
2019-06-10T07:46:43.727Z,56.84
2019-06-10T07:47:41.719Z,56.21
2019-06-10T07:48:42.165Z,56.09
2019-06-10T07:49:41.862Z,55.36
2019-06-10T07:50:39.659Z,54.74
2019-06-10T07:51:39.745Z,54.44
2019-06-10T07:52:39.643Z,54.64
2019-06-10T07:53:40.321Z,54.74
2019-06-10T07:54:39.680Z,54.64
2019-06-10T07:55:39.696Z,53.89
2019-06-10T07:56:45.220Z,53.81
2019-06-10T07:57:43.896Z,53.59
2019-06-10T07:58:40.118Z,54.21
2019-06-10T07:59:39.616Z,53.99
2019-06-10T08:00:46.453Z,52.86
2019-06-10T08:01:45.959Z,52.86
2019-06-10T08:02:45.913Z,53.09
2019-06-10T08:03:39.817Z,53.27
2019-06-10T08:04:39.843Z,53.39
2019-06-10T08:05:40.148Z,54.31
2019-06-10T08:06:39.869Z,54.19
2019-06-10T08:07:40.797Z,54.08
2019-06-10T08:08:42.049Z,54.51
2019-06-10T08:09:39.500Z,54.71
2019-06-10T08:10:39.482Z,54.19
2019-06-10T08:11:39.441Z,53.76
2019-06-10T08:12:39.452Z,53.34
2019-06-10T08:13:44.021Z,53.14
2019-06-10T08:14:42.745Z,52.72
2019-06-10T08:15:39.712Z,52.42
2019-06-10T08:16:39.879Z,52.19
2019-06-10T08:17:42.203Z,51.54
2019-06-10T08:19:08.046Z,50.83
2019-06-10T08:19:47.095Z,50.83
2019-06-10T08:20:43.212Z,51.89
2019-06-10T08:21:40.644Z,51.67
2019-06-10T08:22:44.275Z,51.45
2019-06-10T08:23:43.194Z,50.93
2019-06-10T08:24:43.589Z,50.70
2019-06-10T08:25:40.428Z,50.73
2019-06-10T08:26:42.622Z,50.83
2019-06-10T08:27:40.606Z,50.51
2019-06-10T08:28:39.660Z,50.09
2019-06-10T08:29:40.919Z,49.86
2019-06-10T08:30:42.954Z,49.66
2019-06-10T08:31:39.252Z,49.66
2019-06-10T08:32:43.386Z,49.57
2019-06-10T08:33:44.398Z,50.81
2019-06-10T08:34:40.854Z,51.52
2019-06-10T08:35:46.003Z,52.44
2019-06-10T08:36:44.723Z,52.12
2019-06-10T08:37:42.909Z,51.00
2019-06-10T08:38:44.974Z,50.90
2019-06-10T08:39:42.814Z,51.00
2019-06-10T08:40:40.553Z,51.00
2019-06-10T08:41:41.180Z,50.48
2019-06-10T08:42:41.436Z,51.00
2019-06-10T08:43:39.147Z,51.72
2019-06-10T08:44:39.206Z,51.72
2019-06-10T08:45:41.506Z,51.62
2019-06-10T08:46:39.069Z,50.98
2019-06-10T08:47:39.262Z,50.04
2019-06-10T08:48:39.446Z,49.32
2019-06-10T08:49:42.483Z,48.70
2019-06-10T08:50:39.385Z,48.90
2019-06-10T08:51:39.695Z,48.48
2019-06-10T08:52:53.799Z,47.44
2019-06-10T08:53:42.525Z,47.13
2019-06-10T08:54:41.197Z,46.83
2019-06-10T08:55:42.880Z,46.31
2019-06-10T08:56:40.112Z,45.82
2019-06-10T08:57:42.445Z,46.97
2019-06-10T08:58:40.923Z,48.11
2019-06-10T08:59:40.045Z,48.21
2019-06-10T09:00:41.128Z,47.59
2019-06-10T09:01:45.507Z,47.61
2019-06-10T09:02:41.905Z,47.59
2019-06-10T09:03:40.151Z,47.71
2019-06-10T09:04:41.194Z,48.63
2019-06-10T09:05:41.879Z,48.63
2019-06-10T09:06:41.414Z,47.81
2019-06-10T09:07:39.686Z,47.17
2019-06-10T09:08:40.845Z,46.26
2019-06-10T09:09:40.518Z,45.86
2019-06-10T09:10:40.163Z,46.38
2019-06-10T09:11:40.526Z,46.40
2019-06-10T09:12:40.036Z,45.89
2019-06-10T09:13:40.695Z,45.98
2019-06-10T09:14:41.008Z,45.98
2019-06-10T09:15:39.203Z,46.18
2019-06-10T09:16:40.020Z,46.28
2019-06-10T09:17:39.844Z,46.89
2019-06-10T09:18:44.112Z,46.67
2019-06-10T09:19:40.171Z,45.45
2019-06-10T09:20:39.357Z,44.20
2019-06-10T09:21:42.048Z,43.59
2019-06-10T09:22:42.223Z,43.05
2019-06-10T09:23:41.131Z,42.76
2019-06-10T09:24:39.031Z,42.54
2019-06-10T09:25:39.221Z,41.94
2019-06-10T09:26:39.962Z,42.14
2019-06-10T09:27:40.088Z,42.54
2019-06-10T09:28:39.432Z,42.55
2019-06-10T09:29:39.597Z,43.37
2019-06-10T09:30:40.458Z,44.10
2019-06-10T09:31:41.614Z,43.46
2019-06-10T09:32:39.864Z,42.76
2019-06-10T09:33:39.655Z,42.12
2019-06-10T09:34:40.171Z,41.39
2019-06-10T09:35:39.873Z,40.78
2019-06-10T09:36:40.984Z,41.47
2019-06-10T09:37:40.006Z,42.40
2019-06-10T09:38:40.657Z,43.84
2019-06-10T09:39:44.215Z,44.55
2019-06-10T09:40:41.787Z,44.03
2019-06-10T09:41:43.242Z,42.83
2019-06-10T09:42:45.572Z,43.64
2019-06-10T09:43:42.656Z,43.96
2019-06-10T09:44:41.679Z,43.98
2019-06-10T09:45:38.433Z,43.44
2019-06-10T09:46:38.480Z,42.10
2019-06-10T09:47:44.473Z,42.10
2019-06-10T09:48:40.941Z,42.52
2019-06-10T09:49:38.390Z,42.71
2019-06-10T09:50:38.401Z,42.71
2019-06-10T09:51:43.141Z,42.61
2019-06-10T09:52:42.151Z,42.18
2019-06-10T09:53:46.304Z,41.77
2019-06-10T09:54:41.650Z,42.57
2019-06-10T09:55:42.016Z,42.71
2019-06-10T09:56:40.444Z,43.01
2019-06-10T09:57:38.343Z,42.41
2019-06-10T09:58:40.638Z,42.20
2019-06-10T09:59:38.842Z,41.80
2019-06-10T10:00:41.816Z,41.39
2019-06-10T10:01:41.517Z,41.61
2019-06-10T10:02:44.513Z,42.02
2019-06-10T10:03:41.846Z,42.61
2019-06-10T10:04:39.252Z,41.17
2019-06-10T10:05:43.130Z,39.72
2019-06-10T10:06:41.443Z,38.92
2019-06-10T10:07:38.503Z,38.41
2019-06-10T10:08:38.220Z,38.29
2019-06-10T10:09:39.595Z,38.60
2019-06-10T10:10:39.710Z,37.88
2019-06-10T10:11:38.430Z,37.26
2019-06-10T10:12:38.153Z,36.75
2019-06-10T10:13:44.646Z,36.24
2019-06-10T10:14:39.175Z,35.74
2019-06-10T10:15:38.973Z,35.45
2019-06-10T10:16:38.137Z,36.05
2019-06-10T10:17:46.552Z,36.55
2019-06-10T10:18:39.097Z,37.18
2019-06-10T10:19:39.054Z,38.59
2019-06-10T10:20:38.587Z,38.29
2019-06-10T10:21:41.508Z,37.37
2019-06-10T10:22:39.122Z,37.90
2019-06-10T10:23:51.341Z,39.43
2019-06-10T10:24:39.029Z,40.39
2019-06-10T10:25:38.025Z,41.51
2019-06-10T10:26:38.835Z,42.44
2019-06-10T10:27:38.003Z,43.15
2019-06-10T10:28:38.844Z,43.76
2019-06-10T10:29:37.986Z,43.46
2019-06-10T10:30:37.976Z,43.24
2019-06-10T10:31:38.110Z,42.41
2019-06-10T10:32:38.033Z,41.29
2019-06-10T10:33:39.465Z,40.80
2019-06-10T10:34:39.087Z,41.83
2019-06-10T10:35:39.466Z,41.71
2019-06-10T10:36:38.966Z,41.61
2019-06-10T10:37:37.898Z,42.44
2019-06-10T10:38:40.496Z,43.98
2019-06-10T10:39:46.666Z,45.32
2019-06-10T10:40:39.507Z,46.14
2019-06-10T10:41:38.527Z,46.41
2019-06-10T10:42:45.964Z,44.35
2019-06-10T10:43:39.167Z,42.49
2019-06-10T10:44:39.487Z,41.78
2019-06-10T10:45:43.555Z,40.33
2019-06-10T10:46:39.384Z,40.11
2019-06-10T10:47:38.911Z,39.70
2019-06-10T10:48:38.802Z,39.72
2019-06-10T10:49:37.920Z,39.62
2019-06-10T10:50:37.777Z,39.92
2019-06-10T10:51:40.023Z,39.92
2019-06-10T10:52:38.678Z,39.19
2019-06-10T10:53:38.687Z,38.80
2019-06-10T10:54:37.739Z,39.31
2019-06-10T10:55:37.748Z,39.41
2019-06-10T10:56:58.379Z,38.88
2019-06-10T10:57:45.242Z,39.29
2019-06-10T10:58:37.691Z,38.47
2019-06-10T10:59:37.729Z,38.35
2019-06-10T11:00:38.519Z,38.88
2019-06-10T11:01:43.754Z,38.28
2019-06-10T11:03:02.914Z,37.96
2019-06-10T11:03:38.400Z,39.09
2019-06-10T11:05:01.914Z,41.35
2019-06-10T11:05:44.751Z,43.01
2019-06-10T11:06:39.583Z,44.55
2019-06-10T11:07:42.238Z,45.67
2019-06-10T11:08:44.905Z,46.59
2019-06-10T11:09:42.474Z,46.81
2019-06-10T11:10:55.005Z,47.42
2019-06-10T11:12:02.598Z,47.72
2019-06-10T11:12:40.843Z,48.33
2019-06-10T11:13:45.414Z,48.85
2019-06-10T11:14:42.480Z,49.59
2019-06-10T11:16:06.001Z,50.31
2019-06-10T11:17:53.187Z,51.23
2019-06-10T11:18:52.008Z,51.12
2019-06-10T11:19:49.358Z,51.32
2019-06-10T11:20:49.898Z,51.62
2019-06-10T11:21:49.469Z,52.04
2019-06-10T11:22:49.598Z,52.86
2019-06-10T11:23:59.946Z,53.06
2019-06-10T11:24:54.413Z,52.96
2019-06-10T11:25:47.794Z,52.76
2019-06-10T11:26:50.499Z,52.56
2019-06-10T11:28:17.151Z,52.56
2019-06-10T11:28:47.651Z,52.66
2019-06-10T11:29:56.664Z,52.37
2019-06-10T11:30:49.461Z,52.37
2019-06-10T11:31:51.229Z,52.07
2019-06-10T11:32:59.712Z,51.97
2019-06-10T11:33:48.789Z,50.73
2019-06-10T11:34:48.162Z,50.53
2019-06-10T11:35:48.791Z,50.83
2019-06-10T11:36:55.030Z,51.03
2019-06-10T11:37:47.183Z,51.65
2019-06-10T11:38:48.536Z,51.75
2019-06-10T11:39:50.222Z,51.84
2019-06-10T11:40:52.408Z,52.04
2019-06-10T11:41:46.590Z,52.34
2019-06-10T11:42:48.353Z,52.86
2019-06-10T11:43:52.923Z,53.19
2019-06-10T11:44:54.317Z,52.98
2019-06-10T11:45:55.143Z,53.48
2019-06-10T11:50:19.902Z,54.40
2019-06-10T11:52:29.149Z,54.00
2019-06-10T11:53:35.181Z,53.91
2019-06-10T11:54:34.097Z,53.91
2019-06-10T11:55:35.153Z,54.10
2019-06-10T11:56:28.110Z,53.70
2019-06-10T11:57:29.156Z,53.70
2019-06-10T11:58:52.845Z,54.13
2019-06-10T11:59:29.154Z,53.91
2019-06-10T12:00:26.152Z,53.80
2019-06-10T12:01:28.203Z,53.19
2019-06-10T12:02:27.748Z,53.08
2019-06-10T12:03:27.701Z,52.79
2019-06-10T12:04:27.704Z,52.56
2019-06-10T12:05:28.325Z,52.19
2019-06-10T12:06:26.730Z,52.19
2019-06-10T12:07:29.704Z,52.59
2019-06-10T12:08:32.837Z,52.39
2019-06-10T12:09:29.702Z,52.49
2019-06-10T12:10:28.986Z,52.26
2019-06-10T12:11:25.589Z,52.37
2019-06-10T12:12:26.351Z,52.79
2019-06-10T12:13:34.303Z,52.56
2019-06-10T12:14:27.356Z,52.47
2019-06-10T12:15:27.207Z,52.37
2019-06-10T12:17:15.590Z,52.47
2019-06-10T12:17:42.993Z,52.56
2019-06-10T12:18:29.319Z,52.34
2019-06-10T12:19:25.309Z,52.14
2019-06-10T12:20:33.701Z,51.92
2019-06-10T12:21:26.712Z,51.82
2019-06-10T12:22:27.204Z,52.12
2019-06-10T12:23:33.993Z,51.70
2019-06-10T12:24:33.151Z,49.47
2019-06-10T12:25:40.050Z,50.18
2019-06-10T12:26:25.723Z,50.41
2019-06-10T12:27:33.829Z,50.29
2019-06-10T12:29:36.106Z,49.47
2019-06-10T12:30:37.121Z,49.35
2019-06-10T12:31:37.647Z,49.15
2019-06-10T12:32:42.423Z,48.93
2019-06-10T12:33:35.214Z,48.16
2019-06-10T12:34:35.249Z,48.53
2019-06-10T12:35:35.105Z,48.95
2019-06-10T12:36:35.107Z,48.73
2019-06-10T12:37:35.111Z,48.51
2019-06-10T12:39:10.937Z,47.50
2019-06-10T12:39:35.214Z,47.20
2019-06-10T12:40:42.766Z,46.26
2019-06-10T12:41:35.125Z,44.84
2019-06-10T12:42:39.217Z,44.74
2019-06-10T12:44:00.249Z,44.55
2019-06-10T12:44:38.108Z,45.38
2019-06-10T12:45:36.108Z,46.51
2019-06-10T12:46:38.112Z,46.93
2019-06-10T12:47:37.106Z,46.09
2019-06-10T12:48:38.111Z,46.81
2019-06-10T12:49:36.112Z,46.29
2019-06-10T12:50:42.667Z,45.78
2019-06-10T12:51:36.611Z,46.51
2019-06-10T12:52:34.109Z,47.42
2019-06-10T12:53:36.132Z,47.44
2019-06-10T12:54:35.224Z,47.17
2019-06-10T12:55:42.998Z,48.18
2019-06-10T12:56:42.161Z,48.48
2019-06-10T12:57:35.381Z,48.16
2019-06-10T12:58:35.609Z,46.73
2019-06-10T12:59:35.678Z,45.40
2019-06-10T13:00:36.364Z,44.25